Time;durP1;ratioP1;P1;durP2;ratioP2;P2;SDS_P1;SDS_P2;PMS_P1;PMS_P2;Temp;Humidity;BMP_temperature;BMP_pressure;BME280_temperature;BME280_humidity;BME280_pressure;Samples;Min_cycle;Max_cycle;Signal;HPM_P1;HPM_P2
2023/01/05 00:01:00;;;;;;;;;;;9.90;99.90;;;;;;5007697;28;19925;-78
2023/01/05 00:03:25;;;;;;;;;;;9.90;99.90;;;;;;5010462;28;19926;-78
2023/01/05 00:05:51;;;;;;;;;;;9.80;99.90;;;;;;5027248;28;19929;-79
2023/01/05 00:08:16;;;;;;;;;;;9.90;99.90;;;;;;5010340;28;19925;-80
2023/01/05 00:24:25;;;;;;;;;;;9.90;99.90;;;;;;5025216;28;19994;-79
2023/01/05 00:26:51;;;;;;;;;;;9.90;99.90;;;;;;5010816;28;19988;-79
2023/01/05 00:29:16;;;;;;;;;;;9.90;99.90;;;;;;5011869;28;19925;-79
2023/01/05 00:31:42;;;;;;;;;;;9.90;99.90;;;;;;5010725;28;19932;-79
2023/01/05 00:34:07;;;;;;;;;;;9.90;99.90;;;;;;5007507;28;20107;-79
2023/01/05 00:36:33;;;;;;;;;;;9.90;99.90;;;;;;5025943;28;19934;-79
2023/01/05 00:38:59;;;;;;;;;;;9.90;99.90;;;;;;5012635;28;19925;-79
2023/01/05 00:41:24;;;;;;;;;;;9.90;99.90;;;;;;5013257;28;19929;-79
2023/01/05 00:43:50;;;;;;;;;;;10.00;99.90;;;;;;5014465;28;19988;-79
2023/01/05 00:46:15;;;;;;;;;;;10.00;99.90;;;;;;5014159;28;19949;-80
2023/01/05 00:48:41;;;;;;;;;;;10.00;99.90;;;;;;5011445;28;19926;-79
2023/01/05 00:51:06;;;;;;;;;;;10.00;99.90;;;;;;5013199;28;19940;-80
2023/01/05 00:53:32;;;;;;;;;;;10.00;99.90;;;;;;5017725;28;19973;-80
2023/01/05 00:55:57;;;;;;;;;;;10.00;99.90;;;;;;5018105;28;19980;-80
2023/01/05 00:58:23;;;;;;;;;;;10.00;99.90;;;;;;5017916;28;19929;-79
2023/01/05 01:00:48;;;;;;;;;;;9.90;99.90;;;;;;5033152;28;20440;-80
2023/01/05 01:03:14;;;;;;;;;;;9.90;99.90;;;;;;5013179;28;20500;-80
2023/01/05 01:05:40;;;;;;;;;;;9.90;99.90;;;;;;5012941;28;20083;-80
2023/01/05 01:08:05;;;;;;;;;;;9.90;99.90;;;;;;5013661;28;19926;-79
2023/01/05 01:10:31;;;;;;;;;;;9.90;99.90;;;;;;5012038;28;19929;-79
2023/01/05 01:12:56;;;;;;;;;;;9.90;99.90;;;;;;5016564;28;19933;-79
2023/01/05 01:15:22;;;;;;;;;;;9.90;99.90;;;;;;5014434;28;20000;-80
2023/01/05 01:17:47;;;;;;;;;;;9.90;99.90;;;;;;5015033;28;20372;-80
2023/01/05 01:20:13;;;;;;;;;;;9.90;99.90;;;;;;4998942;28;19936;-80
2023/01/05 01:22:38;;;;;;;;;;;9.90;99.90;;;;;;4999017;28;19925;-80
2023/01/05 01:25:04;;;;;;;;;;;9.90;99.90;;;;;;4996745;28;20015;-80
2023/01/05 01:27:30;;;;;;;;;;;9.90;99.90;;;;;;5013291;28;20292;-80
2023/01/05 01:29:56;;;;;;;;;;;9.90;99.90;;;;;;5012880;28;19926;-81
2023/01/05 01:32:23;;;;;;;;;;;9.80;99.90;;;;;;5014370;28;19992;-80
2023/01/05 01:34:49;;;;;;;;;;;9.90;99.90;;;;;;5014554;28;19925;-80
2023/01/05 01:37:15;;;;;;;;;;;9.80;99.90;;;;;;5012350;28;19975;-80
2023/01/05 01:39:40;;;;;;;;;;;9.90;99.90;;;;;;5006378;28;19929;-80
2023/01/05 01:42:11;;;;;;;;;;;9.80;99.90;;;;;;5028110;28;19933;-80
2023/01/05 01:44:46;;;;;;;;;;;9.90;99.90;;;;;;5013825;28;19926;-80
2023/01/05 01:47:14;;;;;;;;;;;9.90;99.90;;;;;;5006439;28;20465;-79
2023/01/05 01:49:40;;;;;;;;;;;9.90;99.90;;;;;;5012379;28;19960;-80
2023/01/05 01:52:06;;;;;;;;;;;9.80;99.90;;;;;;5009587;28;20474;-79
2023/01/05 01:54:31;;;;;;;;;;;9.80;99.90;;;;;;5010794;28;19929;-80
2023/01/05 01:56:57;;;;;;;;;;;9.80;99.90;;;;;;5013791;28;20589;-80
2023/01/05 01:59:23;;;;;;;;;;;9.80;99.90;;;;;;5010981;28;19925;-80
2023/01/05 02:01:50;;;;;;;;;;;9.80;99.90;;;;;;5013983;28;19957;-80
2023/01/05 02:04:17;;;;;;;;;;;9.80;99.90;;;;;;5014128;28;19957;-80
2023/01/05 02:06:42;;;;;;;;;;;9.80;99.90;;;;;;5020037;28;19961;-80
2023/01/05 02:09:08;;;;;;;;;;;9.90;99.90;;;;;;5009876;28;19929;-80
2023/01/05 02:11:39;;;;;;;;;;;9.80;99.90;;;;;;5011863;28;19929;-80
2023/01/05 02:14:16;;;;;;;;;;;9.80;99.90;;;;;;5027838;28;19948;-79
2023/01/05 02:16:41;;;;;;;;;;;9.80;99.90;;;;;;5027270;28;19929;-80
2023/01/05 02:19:19;;;;;;;;;;;9.80;99.90;;;;;;5010873;28;19979;-80
2023/01/05 02:21:44;;;;;;;;;;;9.80;99.90;;;;;;5013708;28;19932;-80
2023/01/05 02:24:10;;;;;;;;;;;9.90;99.90;;;;;;5008602;28;19925;-81
2023/01/05 02:26:54;;;;;;;;;;;9.90;99.90;;;;;;5011669;28;19988;-80
2023/01/05 02:29:20;;;;;;;;;;;9.90;99.90;;;;;;5010744;28;19934;-80
2023/01/05 02:31:59;;;;;;;;;;;9.90;99.90;;;;;;5029280;28;20270;-80
2023/01/05 02:34:27;;;;;;;;;;;9.90;99.90;;;;;;5012116;28;19940;-80
2023/01/05 02:36:56;;;;;;;;;;;9.90;99.90;;;;;;5009324;28;19937;-81
2023/01/05 02:39:27;;;;;;;;;;;9.90;99.90;;;;;;5009826;28;20326;-80
2023/01/05 02:42:18;;;;;;;;;;;9.90;99.90;;;;;;5014159;28;20396;-80
2023/01/05 02:44:43;;;;;;;;;;;9.90;99.90;;;;;;4996898;28;19943;-81
2023/01/05 02:47:24;;;;;;;;;;;9.90;99.90;;;;;;5010985;28;19929;-80
2023/01/05 02:49:52;;;;;;;;;;;9.90;99.90;;;;;;5001265;28;19926;-80
2023/01/05 02:52:18;;;;;;;;;;;9.90;99.90;;;;;;5012033;28;19933;-80
2023/01/05 02:54:45;;;;;;;;;;;9.90;99.90;;;;;;5009164;28;19941;-80
2023/01/05 02:57:16;;;;;;;;;;;9.90;99.90;;;;;;5009715;28;20498;-80
2023/01/05 02:59:48;;;;;;;;;;;9.90;99.90;;;;;;5010522;28;20419;-80
2023/01/05 03:02:17;;;;;;;;;;;9.90;99.90;;;;;;5010321;28;19936;-80
2023/01/05 03:05:06;;;;;;;;;;;9.90;99.90;;;;;;5011815;28;19933;-80
2023/01/05 03:07:35;;;;;;;;;;;9.90;99.90;;;;;;5010174;28;19933;-81
2023/01/05 03:13:39;;;;;;;;;;;9.90;99.90;;;;;;5011882;28;20387;-81
2023/01/05 03:15:32;;;;;;;;;;;9.90;99.90;;;;;;5011504;28;20160;-80
2023/01/05 03:18:04;;;;;;;;;;;9.90;99.90;;;;;;4998253;28;19930;-80
2023/01/05 03:20:31;;;;;;;;;;;9.90;99.90;;;;;;5005541;28;19925;-80
2023/01/05 03:37:06;;;;;;;;;;;9.90;99.90;;;;;;5027687;28;20016;-80
2023/01/05 03:39:32;;;;;;;;;;;9.90;99.90;;;;;;5010129;28;20022;-80
2023/01/05 03:41:58;;;;;;;;;;;9.90;99.90;;;;;;5010932;28;19936;-80
2023/01/05 03:44:24;;;;;;;;;;;9.90;99.90;;;;;;5009801;28;19929;-80
2023/01/05 03:46:50;;;;;;;;;;;9.90;99.90;;;;;;5009694;28;20012;-80
2023/01/05 03:49:16;;;;;;;;;;;9.90;99.90;;;;;;5011891;28;19975;-80
2023/01/05 03:51:42;;;;;;;;;;;9.90;99.90;;;;;;5012712;28;19969;-80
2023/01/05 03:54:07;;;;;;;;;;;9.90;99.90;;;;;;5010525;28;20423;-81
2023/01/05 03:56:33;;;;;;;;;;;9.90;99.90;;;;;;5009038;28;19944;-80
2023/01/05 03:58:59;;;;;;;;;;;9.90;99.90;;;;;;5028552;28;19936;-80
2023/01/05 04:01:24;;;;;;;;;;;9.90;99.90;;;;;;5010626;28;19933;-80
2023/01/05 04:03:50;;;;;;;;;;;9.90;99.90;;;;;;5008001;28;19930;-80
2023/01/05 04:06:16;;;;;;;;;;;9.90;99.90;;;;;;5010702;28;19940;-80
2023/01/05 04:08:41;;;;;;;;;;;9.90;99.90;;;;;;5009488;28;19925;-80
2023/01/05 04:11:11;;;;;;;;;;;9.90;99.90;;;;;;4995212;28;19971;-80
2023/01/05 04:13:37;;;;;;;;;;;9.90;99.90;;;;;;5011060;28;19937;-81
2023/01/05 04:16:03;;;;;;;;;;;9.90;99.90;;;;;;5030146;28;19925;-81
2023/01/05 04:18:28;;;;;;;;;;;9.90;99.90;;;;;;5018560;28;19973;-81
2023/01/05 04:20:54;;;;;;;;;;;9.90;99.90;;;;;;5027409;28;19939;-80
2023/01/05 04:23:20;;;;;;;;;;;9.90;99.90;;;;;;5012327;28;20401;-80
2023/01/05 04:25:46;;;;;;;;;;;9.90;99.90;;;;;;5011571;28;19933;-80
2023/01/05 04:28:11;;;;;;;;;;;9.90;99.90;;;;;;5013120;28;19949;-80
2023/01/05 04:30:37;;;;;;;;;;;9.90;99.90;;;;;;5014196;28;19980;-80
2023/01/05 04:33:02;;;;;;;;;;;9.90;99.90;;;;;;5013968;28;20407;-80
2023/01/05 04:35:28;;;;;;;;;;;9.90;99.90;;;;;;5012271;28;19925;-80
2023/01/05 04:37:53;;;;;;;;;;;9.90;99.90;;;;;;5014058;28;19940;-80
2023/01/05 04:40:19;;;;;;;;;;;9.90;99.90;;;;;;5031036;28;20301;-80
2023/01/05 04:42:45;;;;;;;;;;;9.90;99.90;;;;;;5016505;28;19929;-80
2023/01/05 04:45:11;;;;;;;;;;;9.90;99.90;;;;;;5006212;28;20004;-80
2023/01/05 04:47:36;;;;;;;;;;;9.90;99.90;;;;;;5029932;28;19961;-80
2023/01/05 04:50:02;;;;;;;;;;;9.90;99.90;;;;;;5015772;28;20044;-80
2023/01/05 04:52:27;;;;;;;;;;;9.90;99.90;;;;;;5013789;28;19929;-80
2023/01/05 04:54:53;;;;;;;;;;;9.90;99.90;;;;;;5010020;28;20000;-80
2023/01/05 04:57:18;;;;;;;;;;;9.80;99.90;;;;;;5012189;28;19932;-80
2023/01/05 04:59:44;;;;;;;;;;;9.80;99.90;;;;;;5013986;28;19930;-80
2023/01/05 05:02:10;;;;;;;;;;;9.80;99.90;;;;;;5014510;28;19956;-80
2023/01/05 05:04:35;;;;;;;;;;;9.80;99.90;;;;;;5011436;28;19976;-80
2023/01/05 05:07:01;;;;;;;;;;;9.80;99.90;;;;;;5013665;28;19929;-79
2023/01/05 05:09:26;;;;;;;;;;;9.80;99.90;;;;;;5010988;28;19948;-80
2023/01/05 05:11:52;;;;;;;;;;;9.80;99.90;;;;;;5015457;28;19932;-80
2023/01/05 05:14:18;;;;;;;;;;;9.70;99.90;;;;;;5013921;28;19993;-80
2023/01/05 05:16:43;;;;;;;;;;;9.70;99.90;;;;;;5015067;28;19956;-80
2023/01/05 05:19:09;;;;;;;;;;;9.80;99.90;;;;;;5015688;28;20321;-80
2023/01/05 05:21:34;;;;;;;;;;;9.70;99.90;;;;;;5013517;28;19926;-80
2023/01/05 05:24:00;;;;;;;;;;;9.70;99.90;;;;;;4997834;28;20396;-80
2023/01/05 05:26:26;;;;;;;;;;;9.80;99.90;;;;;;5014193;28;19926;-79
2023/01/05 05:28:51;;;;;;;;;;;9.70;99.90;;;;;;5030197;28;20326;-79
2023/01/05 05:31:17;;;;;;;;;;;9.70;99.90;;;;;;5029527;28;19930;-79
2023/01/05 05:33:42;;;;;;;;;;;9.80;99.90;;;;;;4996928;28;19937;-79
2023/01/05 05:36:08;;;;;;;;;;;9.70;99.90;;;;;;5026978;28;20323;-78
2023/01/05 05:38:34;;;;;;;;;;;9.80;99.90;;;;;;4997297;28;19952;-79
2023/01/05 05:40:59;;;;;;;;;;;9.80;99.90;;;;;;4996700;28;19999;-79
2023/01/05 05:43:25;;;;;;;;;;;9.80;99.90;;;;;;5013320;28;19926;-79
2023/01/05 05:45:50;;;;;;;;;;;9.80;99.90;;;;;;5012814;28;20451;-79
2023/01/05 05:48:16;;;;;;;;;;;9.80;99.90;;;;;;5010243;28;19936;-79
2023/01/05 05:50:43;;;;;;;;;;;9.70;99.90;;;;;;4996601;28;19983;-79
2023/01/05 05:53:08;;;;;;;;;;;9.80;99.90;;;;;;5031121;28;19953;-79
2023/01/05 05:55:34;;;;;;;;;;;9.70;99.90;;;;;;5010869;28;19933;-79
2023/01/05 05:57:59;;;;;;;;;;;9.80;99.90;;;;;;5013341;28;19929;-79
2023/01/05 06:00:25;;;;;;;;;;;9.70;99.90;;;;;;5016442;28;20016;-78
2023/01/05 06:02:50;;;;;;;;;;;9.80;99.90;;;;;;5017280;28;19925;-79
2023/01/05 06:05:16;;;;;;;;;;;9.70;99.90;;;;;;5018198;28;19926;-79
2023/01/05 06:07:42;;;;;;;;;;;9.80;99.90;;;;;;5018644;28;19968;-79
2023/01/05 06:10:07;;;;;;;;;;;9.70;99.90;;;;;;5012926;28;19941;-78
2023/01/05 06:12:33;;;;;;;;;;;9.80;99.90;;;;;;5013241;28;19976;-79
2023/01/05 06:14:58;;;;;;;;;;;9.70;99.90;;;;;;5013199;28;19929;-79
2023/01/05 06:17:24;;;;;;;;;;;9.70;99.90;;;;;;5010467;28;19992;-79
2023/01/05 06:19:50;;;;;;;;;;;9.80;99.90;;;;;;4993366;28;19957;-79
2023/01/05 06:22:15;;;;;;;;;;;9.80;99.90;;;;;;5007909;28;19968;-79
2023/01/05 06:24:41;;;;;;;;;;;9.70;99.90;;;;;;5007290;28;19930;-79
2023/01/05 06:27:06;;;;;;;;;;;9.70;99.90;;;;;;5008092;28;20000;-79
2023/01/05 06:29:32;;;;;;;;;;;9.70;99.90;;;;;;5023631;28;19926;-79
2023/01/05 06:31:57;;;;;;;;;;;9.70;99.90;;;;;;5011604;28;19932;-79
2023/01/05 06:34:23;;;;;;;;;;;9.70;99.90;;;;;;5015490;28;19936;-78
2023/01/05 06:36:49;;;;;;;;;;;9.70;99.90;;;;;;5028523;28;19936;-78
2023/01/05 06:39:14;;;;;;;;;;;9.70;99.90;;;;;;5012573;28;19926;-78
2023/01/05 06:41:40;;;;;;;;;;;9.80;99.90;;;;;;5012500;28;20020;-78
2023/01/05 06:44:05;;;;;;;;;;;9.80;99.90;;;;;;5010554;28;19926;-79
2023/01/05 06:46:31;;;;;;;;;;;9.70;99.90;;;;;;5011456;28;19930;-78
2023/01/05 06:48:57;;;;;;;;;;;9.70;99.90;;;;;;5012100;28;19925;-78
2023/01/05 06:51:22;;;;;;;;;;;9.70;99.90;;;;;;5012396;28;19925;-78
2023/01/05 06:53:48;;;;;;;;;;;9.80;99.90;;;;;;5014227;28;19969;-78
2023/01/05 06:56:13;;;;;;;;;;;9.80;99.90;;;;;;5016954;28;19929;-78
2023/01/05 06:58:39;;;;;;;;;;;9.80;99.90;;;;;;5015352;28;19926;-78
2023/01/05 07:01:04;;;;;;;;;;;9.70;99.90;;;;;;5016965;28;19929;-78
2023/01/05 07:03:30;;;;;;;;;;;9.80;99.90;;;;;;5029907;28;20015;-78
2023/01/05 07:05:56;;;;;;;;;;;9.80;99.90;;;;;;5014509;28;20404;-78
2023/01/05 07:08:21;;;;;;;;;;;9.80;99.90;;;;;;5019156;28;19933;-78
2023/01/05 07:10:47;;;;;;;;;;;9.80;99.90;;;;;;5034347;28;19933;-78
2023/01/05 07:13:12;;;;;;;;;;;9.80;99.90;;;;;;5016608;28;20427;-78
2023/01/05 07:15:38;;;;;;;;;;;9.80;99.90;;;;;;5014755;28;19944;-78
2023/01/05 07:18:03;;;;;;;;;;;9.80;99.90;;;;;;5017390;28;19999;-78
2023/01/05 07:20:29;;;;;;;;;;;9.80;99.90;;;;;;5018207;28;20016;-78
2023/01/05 07:22:54;;;;;;;;;;;9.80;99.90;;;;;;5017846;28;20380;-78
2023/01/05 07:25:20;;;;;;;;;;;9.80;99.90;;;;;;5012477;28;19933;-78
2023/01/05 07:27:50;;;;;;;;;;;9.70;99.90;;;;;;5018095;28;20281;-78
2023/01/05 07:30:15;;;;;;;;;;;9.70;99.90;;;;;;5017928;28;19940;-78
2023/01/05 07:32:41;;;;;;;;;;;9.70;99.90;;;;;;5017603;28;19925;-78
2023/01/05 07:35:07;;;;;;;;;;;9.70;99.90;;;;;;5024469;28;19963;-78
2023/01/05 07:37:32;;;;;;;;;;;9.70;99.90;;;;;;5018416;28;19925;-78
2023/01/05 07:39:58;;;;;;;;;;;9.70;99.90;;;;;;5003830;28;20431;-78
2023/01/05 07:42:24;;;;;;;;;;;9.70;99.90;;;;;;5017478;28;19933;-78
2023/01/05 07:44:51;;;;;;;;;;;9.70;99.90;;;;;;5017505;28;20319;-78
2023/01/05 07:47:17;;;;;;;;;;;9.60;99.90;;;;;;5019418;28;20286;-78
2023/01/05 07:49:42;;;;;;;;;;;9.60;99.90;;;;;;5021916;28;19976;-78
2023/01/05 07:52:08;;;;;;;;;;;9.60;99.90;;;;;;5023627;28;19933;-78
2023/01/05 07:54:33;;;;;;;;;;;9.60;99.90;;;;;;5021517;28;19935;-78
2023/01/05 07:56:59;;;;;;;;;;;9.60;99.90;;;;;;5020856;28;19925;-78
2023/01/05 07:59:25;;;;;;;;;;;9.60;99.90;;;;;;5039638;28;20133;-78
2023/01/05 08:01:50;;;;;;;;;;;9.60;99.90;;;;;;5023756;28;19929;-78
2023/01/05 08:04:16;;;;;;;;;;;9.60;99.90;;;;;;5025277;28;20016;-77
2023/01/05 08:06:42;;;;;;;;;;;9.70;99.90;;;;;;5025315;28;19925;-78
2023/01/05 08:11:51;;;;;;;;;;;9.60;99.90;;;;;;5024721;28;20254;-79
2023/01/05 08:14:17;;;;;;;;;;;9.60;99.90;;;;;;5024625;28;19925;-79
2023/01/05 08:16:42;;;;;;;;;;;9.60;99.90;;;;;;5025061;28;19949;-78
2023/01/05 08:19:09;;;;;;;;;;;9.60;99.90;;;;;;5022400;28;19926;-78
2023/01/05 08:21:35;;;;;;;;;;;9.60;99.90;;;;;;5023888;28;19929;-78
2023/01/05 08:24:00;;;;;;;;;;;9.60;99.90;;;;;;5025451;28;19932;-78
2023/01/05 08:26:26;;;;;;;;;;;9.60;99.90;;;;;;5023155;28;19933;-78
2023/01/05 08:28:52;;;;;;;;;;;9.60;99.90;;;;;;5038973;28;19944;-78
2023/01/05 08:31:24;;;;;;;;;;;9.60;99.90;;;;;;5021252;28;21138;-78
2023/01/05 08:33:54;;;;;;;;;;;9.70;99.90;;;;;;5022126;28;19932;-78
2023/01/05 08:36:19;;;;;;;;;;;9.70;99.90;;;;;;5023575;28;19975;-78
2023/01/05 08:38:52;;;;;;;;;;;9.70;99.90;;;;;;5023066;28;19974;-78
2023/01/05 08:41:19;;;;;;;;;;;9.70;99.90;;;;;;5022610;28;19926;-78
2023/01/05 08:43:48;;;;;;;;;;;9.70;99.90;;;;;;5024538;28;19934;-79
2023/01/05 08:46:13;;;;;;;;;;;9.70;99.90;;;;;;5023482;28;20391;-78
2023/01/05 08:48:39;;;;;;;;;;;9.70;99.90;;;;;;5024973;28;19937;-78
2023/01/05 08:51:06;;;;;;;;;;;9.70;99.90;;;;;;5021634;28;19956;-78
2023/01/05 08:53:33;;;;;;;;;;;9.70;99.90;;;;;;5003547;28;19926;-78
2023/01/05 08:55:58;;;;;;;;;;;9.70;99.90;;;;;;5016823;28;19926;-78
2023/01/05 08:58:24;;;;;;;;;;;9.80;99.90;;;;;;5037119;28;19965;-77
2023/01/05 09:00:50;;;;;;;;;;;9.80;99.90;;;;;;5014321;28;19977;-78
2023/01/05 09:03:15;;;;;;;;;;;9.80;99.90;;;;;;5014785;28;19975;-78
2023/01/05 09:05:41;;;;;;;;;;;9.80;99.90;;;;;;5019129;28;19964;-78
2023/01/05 09:08:06;;;;;;;;;;;9.80;99.90;;;;;;5029468;28;19926;-78
2023/01/05 09:10:32;;;;;;;;;;;9.80;99.90;;;;;;5024618;28;19960;-78
2023/01/05 09:12:57;;;;;;;;;;;9.80;99.90;;;;;;5021555;28;19926;-78
2023/01/05 09:15:23;;;;;;;;;;;9.80;99.90;;;;;;5018474;28;20478;-78
2023/01/05 09:17:48;;;;;;;;;;;9.90;99.90;;;;;;5017488;28;19941;-78
2023/01/05 09:20:14;;;;;;;;;;;9.90;99.90;;;;;;5021103;28;19986;-78
2023/01/05 09:22:40;;;;;;;;;;;9.90;99.90;;;;;;5020170;28;19952;-78
2023/01/05 09:25:05;;;;;;;;;;;9.90;99.90;;;;;;5019727;28;20013;-78
2023/01/05 09:27:31;;;;;;;;;;;10.00;99.90;;;;;;5018781;28;19926;-78
2023/01/05 09:29:57;;;;;;;;;;;10.00;99.90;;;;;;5021155;28;19925;-78
2023/01/05 09:32:23;;;;;;;;;;;10.00;99.90;;;;;;5017414;28;19933;-78
2023/01/05 09:34:48;;;;;;;;;;;10.00;99.90;;;;;;5020865;28;19972;-78
2023/01/05 09:37:14;;;;;;;;;;;10.00;99.90;;;;;;5020174;28;20363;-78
2023/01/05 09:39:40;;;;;;;;;;;10.10;99.90;;;;;;5020665;28;20205;-78
2023/01/05 09:42:06;;;;;;;;;;;10.10;99.90;;;;;;5018837;28;19941;-78
2023/01/05 09:44:40;;;;;;;;;;;10.10;99.90;;;;;;5020543;28;19933;-78
2023/01/05 09:47:09;;;;;;;;;;;10.10;99.90;;;;;;5017388;28;19932;-78
2023/01/05 09:49:34;;;;;;;;;;;10.20;99.90;;;;;;5017250;28;19930;-78
2023/01/05 09:52:01;;;;;;;;;;;10.20;99.90;;;;;;5018459;28;20380;-78
2023/01/05 09:54:28;;;;;;;;;;;10.20;99.90;;;;;;5006419;28;19931;-78
2023/01/05 09:56:55;;;;;;;;;;;10.10;99.90;;;;;;4998180;28;19945;-78
2023/01/05 09:59:26;;;;;;;;;;;10.20;99.90;;;;;;5012307;28;19929;-78
2023/01/05 10:01:53;;;;;;;;;;;10.20;99.90;;;;;;5012135;28;19931;-78
2023/01/05 10:04:23;;;;;;;;;;;10.20;99.90;;;;;;5012166;28;19926;-78
2023/01/05 10:06:53;;;;;;;;;;;10.10;99.90;;;;;;5011324;28;19973;-78
2023/01/05 10:09:21;;;;;;;;;;;10.20;99.90;;;;;;5013039;28;19929;-78
2023/01/05 10:14:38;;;;;;;;;;;10.20;99.90;;;;;;5014235;28;19953;-78
2023/01/05 10:17:09;;;;;;;;;;;10.20;99.90;;;;;;5011818;28;19929;-77
2023/01/05 10:19:35;;;;;;;;;;;10.20;99.90;;;;;;5033227;28;20000;-78
2023/01/05 10:22:11;;;;;;;;;;;10.20;99.90;;;;;;5015558;28;19930;-77
2023/01/05 10:24:40;;;;;;;;;;;10.20;99.90;;;;;;5015878;28;19951;-78
2023/01/05 10:27:18;;;;;;;;;;;10.30;99.90;;;;;;5017756;28;19925;-78
2023/01/05 10:29:45;;;;;;;;;;;10.30;99.90;;;;;;5018660;28;20036;-78
2023/01/05 10:32:27;;;;;;;;;;;10.40;99.90;;;;;;5016578;28;19926;-78
2023/01/05 10:34:57;;;;;;;;;;;10.40;99.90;;;;;;5015244;28;19926;-78
2023/01/05 10:37:31;;;;;;;;;;;10.50;99.90;;;;;;5006160;28;19932;-78
2023/01/05 10:39:57;;;;;;;;;;;10.50;99.90;;;;;;5013975;28;19926;-78
2023/01/05 10:42:36;;;;;;;;;;;10.60;99.90;;;;;;5012791;28;19941;-78
2023/01/05 10:45:03;;;;;;;;;;;10.60;99.90;;;;;;5006392;28;20515;-78
2023/01/05 10:47:30;;;;;;;;;;;10.60;99.90;;;;;;5005316;28;19925;-78
2023/01/05 10:49:57;;;;;;;;;;;10.60;99.90;;;;;;5003867;28;19929;-78
2023/01/05 10:52:22;;;;;;;;;;;10.60;99.90;;;;;;4998232;28;20413;-78
2023/01/05 10:54:54;;;;;;;;;;;10.60;99.90;;;;;;5000077;28;19926;-78
2023/01/05 10:57:28;;;;;;;;;;;10.60;99.90;;;;;;5019420;28;21137;-78
2023/01/05 10:59:55;;;;;;;;;;;10.60;99.90;;;;;;5018179;28;20028;-78
2023/01/05 11:02:22;;;;;;;;;;;10.60;99.90;;;;;;5004747;28;20495;-78
2023/01/05 11:04:48;;;;;;;;;;;10.60;99.90;;;;;;5001792;28;19992;-78
2023/01/05 11:07:14;;;;;;;;;;;10.60;99.90;;;;;;5029216;28;19946;-78
2023/01/05 11:09:40;;;;;;;;;;;10.60;99.90;;;;;;5012301;28;19925;-78
2023/01/05 11:12:14;;;;;;;;;;;10.60;99.90;;;;;;5014076;28;20012;-78
2023/01/05 11:14:42;;;;;;;;;;;10.60;99.90;;;;;;5013074;28;19933;-78
2023/01/05 11:17:12;;;;;;;;;;;10.60;99.90;;;;;;5015342;28;19929;-77
2023/01/05 11:19:44;;;;;;;;;;;10.60;99.90;;;;;;5002926;28;19929;-78
2023/01/05 11:22:29;;;;;;;;;;;10.60;99.90;;;;;;5013288;28;20091;-78
2023/01/05 11:25:11;;;;;;;;;;;10.60;99.90;;;;;;5014814;28;20254;-78
2023/01/05 11:27:37;;;;;;;;;;;10.60;99.90;;;;;;5016539;28;19933;-78
2023/01/05 11:30:15;;;;;;;;;;;10.60;99.90;;;;;;5015182;28;19930;-78
2023/01/05 11:32:41;;;;;;;;;;;10.60;99.90;;;;;;5015971;28;19961;-78
2023/01/05 11:35:23;;;;;;;;;;;10.60;99.90;;;;;;5017264;28;19929;-78
2023/01/05 11:37:49;;;;;;;;;;;10.60;99.90;;;;;;5014681;28;19929;-78
2023/01/05 11:40:17;;;;;;;;;;;10.60;99.90;;;;;;5001217;28;19987;-81
2023/01/05 11:42:43;;;;;;;;;;;10.60;99.90;;;;;;5016549;28;19956;-82
2023/01/05 11:45:23;;;;;;;;;;;10.60;99.90;;;;;;5017337;28;19926;-82
2023/01/05 11:47:52;;;;;;;;;;;10.60;99.90;;;;;;5017223;28;19925;-82
2023/01/05 11:50:40;;;;;;;;;;;10.60;99.90;;;;;;5018720;28;19948;-81
2023/01/05 11:53:20;;;;;;;;;;;10.70;99.90;;;;;;5017676;28;19930;-79
2023/01/05 11:55:57;;;;;;;;;;;10.60;99.90;;;;;;5034045;28;19930;-81
2023/01/05 11:58:30;;;;;;;;;;;10.60;99.90;;;;;;5016064;28;20021;-80
2023/01/05 12:01:04;;;;;;;;;;;10.50;99.90;;;;;;5015895;28;19925;-81
2023/01/05 12:03:33;;;;;;;;;;;10.50;99.90;;;;;;5016203;28;19926;-82
2023/01/05 12:06:03;;;;;;;;;;;10.50;99.90;;;;;;4999565;28;19936;-81
2023/01/05 12:08:37;;;;;;;;;;;10.40;99.90;;;;;;5016053;28;20039;-82
2023/01/05 12:11:23;;;;;;;;;;;10.40;99.90;;;;;;5016917;28;20443;-82
2023/01/05 12:14:04;;;;;;;;;;;10.40;99.90;;;;;;5013741;28;19925;-82
2023/01/05 12:16:42;;;;;;;;;;;10.30;99.90;;;;;;5017160;28;19925;-81
2023/01/05 12:19:23;;;;;;;;;;;10.30;99.90;;;;;;5015807;28;20391;-81
2023/01/05 12:22:07;;;;;;;;;;;10.30;99.90;;;;;;5001167;28;19974;-81
2023/01/05 12:24:43;;;;;;;;;;;10.20;99.90;;;;;;5015601;28;19929;-81
2023/01/05 12:27:18;;;;;;;;;;;10.20;99.90;;;;;;5016787;28;19999;-81
2023/01/05 12:30:09;;;;;;;;;;;10.20;99.90;;;;;;5014887;28;20024;-82
2023/01/05 12:32:40;;;;;;;;;;;10.20;99.90;;;;;;5016459;28;19964;-82
2023/01/05 12:35:11;;;;;;;;;;;10.20;99.90;;;;;;5016296;28;19925;-81
2023/01/05 12:37:56;;;;;;;;;;;10.10;99.90;;;;;;5036667;28;19932;-81
2023/01/05 12:40:41;;;;;;;;;;;10.10;99.90;;;;;;5020538;28;20351;-81
2023/01/05 12:43:16;;;;;;;;;;;10.10;99.90;;;;;;5019993;28;19992;-82
2023/01/05 12:45:41;;;;;;;;;;;10.10;99.90;;;;;;5016717;28;19925;-81
2023/01/05 12:48:07;;;;;;;;;;;10.10;99.90;;;;;;5020338;28;19929;-81
2023/01/05 12:50:41;;;;;;;;;;;10.20;99.90;;;;;;5021101;28;19936;-81
2023/01/05 12:53:12;;;;;;;;;;;10.10;99.90;;;;;;5015046;28;19935;-81
2023/01/05 12:55:40;;;;;;;;;;;10.20;99.90;;;;;;5017156;28;20449;-81
2023/01/05 12:58:12;;;;;;;;;;;10.20;99.90;;;;;;5034828;28;19926;-82
2023/01/05 13:00:44;;;;;;;;;;;10.20;99.90;;;;;;5014650;28;20001;-82
2023/01/05 13:03:14;;;;;;;;;;;10.20;99.90;;;;;;5024097;28;19925;-82
2023/01/05 13:05:46;;;;;;;;;;;10.20;99.90;;;;;;5014539;28;19925;-82
2023/01/05 13:08:17;;;;;;;;;;;10.30;99.90;;;;;;5019161;28;19932;-82
2023/01/05 13:10:43;;;;;;;;;;;10.30;99.90;;;;;;5016672;28;20292;-82
2023/01/05 13:13:13;;;;;;;;;;;10.30;99.90;;;;;;5022422;28;19925;-82
2023/01/05 13:15:47;;;;;;;;;;;10.30;99.90;;;;;;5016191;28;19933;-82
2023/01/05 13:18:14;;;;;;;;;;;10.30;99.90;;;;;;5018294;28;20520;-81
2023/01/05 13:20:54;;;;;;;;;;;10.30;99.90;;;;;;5019546;28;19929;-82
2023/01/05 13:23:23;;;;;;;;;;;10.30;99.90;;;;;;5018951;28;20008;-82
2023/01/05 13:25:55;;;;;;;;;;;10.30;99.90;;;;;;5019291;28;19930;-81
2023/01/05 13:28:21;;;;;;;;;;;10.30;99.90;;;;;;5033430;28;19929;-82
2023/01/05 13:30:54;;;;;;;;;;;10.30;99.90;;;;;;5019442;28;19937;-82
2023/01/05 13:33:36;;;;;;;;;;;10.30;99.90;;;;;;5019158;28;19940;-82
2023/01/05 13:36:05;;;;;;;;;;;10.30;99.90;;;;;;5032026;28;19926;-82
2023/01/05 13:38:43;;;;;;;;;;;10.30;99.90;;;;;;5017630;28;19926;-82
2023/01/05 13:41:15;;;;;;;;;;;10.30;99.90;;;;;;5018249;28;19929;-82
2023/01/05 13:43:47;;;;;;;;;;;10.30;99.90;;;;;;5018233;28;19929;-81
2023/01/05 13:46:31;;;;;;;;;;;10.30;99.90;;;;;;5017937;28;19971;-81
2023/01/05 13:49:20;;;;;;;;;;;10.30;99.90;;;;;;5009709;28;19930;-81
2023/01/05 13:51:54;;;;;;;;;;;10.30;99.90;;;;;;5019001;28;19996;-82
2023/01/05 13:54:33;;;;;;;;;;;10.30;99.90;;;;;;5017887;28;19975;-81
2023/01/05 13:56:59;;;;;;;;;;;10.30;99.90;;;;;;5035606;28;19930;-82
2023/01/05 13:59:32;;;;;;;;;;;10.40;99.90;;;;;;5012887;28;19934;-81
2023/01/05 14:01:59;;;;;;;;;;;10.30;99.90;;;;;;5017558;28;19926;-82
2023/01/05 14:04:26;;;;;;;;;;;10.30;99.90;;;;;;5001414;28;19934;-81
2023/01/05 14:07:03;;;;;;;;;;;10.30;99.90;;;;;;5018843;28;19947;-82
2023/01/05 14:09:31;;;;;;;;;;;10.30;99.90;;;;;;5005108;28;20443;-82
2023/01/05 14:12:19;;;;;;;;;;;10.30;99.90;;;;;;5018165;28;19925;-83
2023/01/05 14:15:04;;;;;;;;;;;10.30;99.90;;;;;;4989040;28;19936;-83
2023/01/05 14:17:49;;;;;;;;;;;10.30;99.90;;;;;;5018610;28;19930;-83
2023/01/05 14:20:34;;;;;;;;;;;10.30;99.90;;;;;;5017194;28;19929;-82
2023/01/05 14:23:01;;;;;;;;;;;10.30;99.90;;;;;;5014837;28;19979;-83
2023/01/05 14:25:39;;;;;;;;;;;10.30;99.90;;;;;;5016057;28;19926;-83
2023/01/05 14:28:16;;;;;;;;;;;10.30;99.90;;;;;;5016657;28;19972;-83
2023/01/05 14:30:42;;;;;;;;;;;10.30;99.90;;;;;;5031835;28;19948;-83
2023/01/05 14:33:09;;;;;;;;;;;10.30;99.90;;;;;;5015501;28;20358;-83
2023/01/05 14:35:35;;;;;;;;;;;10.20;99.90;;;;;;5015353;28;19969;-83
2023/01/05 14:38:04;;;;;;;;;;;10.10;99.90;;;;;;5016650;28;19925;-83
2023/01/05 14:40:32;;;;;;;;;;;10.00;99.90;;;;;;5017662;28;19930;-82
2023/01/05 14:42:59;;;;;;;;;;;10.00;99.90;;;;;;5034689;28;20397;-83
2023/01/05 14:45:32;;;;;;;;;;;10.00;99.90;;;;;;5019300;28;20032;-83
2023/01/05 14:48:01;;;;;;;;;;;9.90;99.90;;;;;;5005072;28;19925;-83
2023/01/05 14:50:32;;;;;;;;;;;9.90;99.90;;;;;;5016547;28;19925;-83
2023/01/05 14:53:06;;;;;;;;;;;9.80;99.90;;;;;;5018416;28;19925;-83
2023/01/05 14:55:33;;;;;;;;;;;9.80;99.90;;;;;;5019203;28;19925;-83
2023/01/05 14:58:04;;;;;;;;;;;9.80;99.90;;;;;;5006521;28;20277;-83
2023/01/05 15:00:38;;;;;;;;;;;9.80;99.90;;;;;;5017166;28;19952;-83
2023/01/05 15:03:13;;;;;;;;;;;9.80;99.90;;;;;;5034132;28;19931;-83
2023/01/05 15:05:48;;;;;;;;;;;9.80;99.90;;;;;;5032957;28;19925;-82
2023/01/05 15:08:33;;;;;;;;;;;9.80;99.90;;;;;;5014076;28;19936;-83
2023/01/05 15:11:24;;;;;;;;;;;9.80;99.90;;;;;;5010436;28;19940;-78